createdAt,value
2023-05-09T00:01:54.141Z,101419.69
2023-05-09T00:04:26.729Z,101421.84
2023-05-09T00:06:58.402Z,101422.05
2023-05-09T00:09:30.195Z,101417.81
2023-05-09T00:12:02.679Z,101416.47
2023-05-09T00:14:34.234Z,101417.81
2023-05-09T00:17:06.103Z,101414.14
2023-05-09T00:19:39.273Z,101417.22
2023-05-09T00:22:13.282Z,101413.17
2023-05-09T00:24:45.062Z,101418.02
2023-05-09T00:27:16.754Z,101417.92
2023-05-09T00:29:48.425Z,101417.45
2023-05-09T00:32:20.216Z,101409.64
2023-05-09T00:34:51.964Z,101413.23
2023-05-09T00:37:24.123Z,101413.64
2023-05-09T00:39:55.710Z,101418.48
2023-05-09T00:42:27.546Z,101419.75
2023-05-09T00:44:59.137Z,101416.45
2023-05-09T00:47:32.098Z,101415.48
2023-05-09T00:50:03.875Z,101412.69
2023-05-09T00:52:35.718Z,101414.92
2023-05-09T00:55:08.507Z,101415.12
2023-05-09T00:57:41.599Z,101412.33
2023-05-09T01:00:14.224Z,101417.94
2023-05-09T01:02:48.312Z,101412.53
2023-05-09T01:05:20.792Z,101411.59
2023-05-09T01:08:14.146Z,101417.00
2023-05-09T01:10:58.024Z,101415.65
2023-05-09T01:13:38.904Z,101409.27
2023-05-09T01:16:15.596Z,101417.58
2023-05-09T01:19:02.315Z,101417.02
2023-05-09T01:21:34.328Z,101419.72
2023-05-09T01:24:44.750Z,101418.75
2023-05-09T01:27:23.436Z,101418.84
2023-05-09T01:29:59.350Z,101421.16
2023-05-09T01:32:41.274Z,101425.31
2023-05-09T01:35:14.839Z,101417.58
2023-05-09T01:37:46.724Z,101420.78
2023-05-09T01:40:20.308Z,101422.60
2023-05-09T01:43:06.689Z,101428.30
2023-05-09T01:45:41.569Z,101420.09
2023-05-09T01:48:13.305Z,101422.33
2023-05-09T01:50:45.648Z,101424.16
2023-05-09T01:53:17.610Z,101427.27
2023-05-09T01:55:49.165Z,101419.63
2023-05-09T01:58:20.976Z,101420.09
2023-05-09T02:00:52.827Z,101421.45
2023-05-09T02:03:24.773Z,101422.80
2023-05-09T02:05:56.666Z,101421.45
2023-05-09T02:08:28.513Z,101422.05
2023-05-09T02:11:00.385Z,101418.84
2023-05-09T02:13:32.565Z,101423.59
2023-05-09T02:16:04.555Z,101415.11
2023-05-09T02:18:36.462Z,101421.86
2023-05-09T02:21:08.613Z,101412.17
2023-05-09T02:23:40.608Z,101415.84
2023-05-09T02:26:12.991Z,101415.05
2023-05-09T02:28:44.901Z,101419.11
2023-05-09T02:31:16.851Z,101422.60
2023-05-09T02:33:48.567Z,101423.95
2023-05-09T02:36:20.066Z,101419.91
2023-05-09T02:38:51.637Z,101427.04
2023-05-09T02:41:23.263Z,101428.30
2023-05-09T02:43:54.940Z,101431.89
2023-05-09T02:46:27.102Z,101429.98
2023-05-09T02:48:58.972Z,101427.27
2023-05-09T02:51:32.359Z,101429.98
2023-05-09T02:54:04.006Z,101432.67
2023-05-09T02:56:36.395Z,101436.61
2023-05-09T02:59:08.318Z,101431.70
2023-05-09T03:01:40.294Z,101429.00
2023-05-09T03:04:12.963Z,101433.44
2023-05-09T03:06:45.209Z,101434.79
2023-05-09T03:09:16.994Z,101434.70
2023-05-09T03:11:48.967Z,101435.78
2023-05-09T03:14:20.750Z,101438.30
2023-05-09T03:16:52.371Z,101446.70
2023-05-09T03:19:25.670Z,101442.64
2023-05-09T03:21:57.397Z,101443.15
2023-05-09T03:24:30.000Z,101442.94
2023-05-09T03:27:01.557Z,101448.16
2023-05-09T03:29:34.133Z,101447.13
2023-05-09T03:32:06.241Z,101453.71
2023-05-09T03:34:38.041Z,101452.73
2023-05-09T03:37:09.938Z,101460.94
2023-05-09T03:39:43.704Z,101457.77
2023-05-09T03:42:15.823Z,101457.08
2023-05-09T03:44:49.024Z,101457.69
2023-05-09T03:47:20.646Z,101459.61
2023-05-09T03:49:53.697Z,101460.69
2023-05-09T03:52:26.377Z,101466.30
2023-05-09T03:55:04.309Z,101464.47
2023-05-09T03:57:37.699Z,101475.99
2023-05-09T04:00:10.446Z,101470.86
2023-05-09T04:02:53.212Z,101470.36
2023-05-09T04:05:27.517Z,101470.58
2023-05-09T04:07:59.504Z,101470.30
2023-05-09T04:10:32.675Z,101469.52
2023-05-09T04:13:05.317Z,101474.27
2023-05-09T04:15:37.066Z,101471.66
2023-05-09T04:18:10.912Z,101474.93
2023-05-09T04:20:42.488Z,101476.60
2023-05-09T04:23:14.950Z,101474.17
2023-05-09T04:25:47.078Z,101479.11
2023-05-09T04:28:19.268Z,101478.42
2023-05-09T04:30:51.619Z,101480.75
2023-05-09T04:33:24.427Z,101480.45
2023-05-09T04:35:57.892Z,101478.72
2023-05-09T04:38:30.090Z,101490.02
2023-05-09T04:41:02.239Z,101485.76
2023-05-09T04:43:34.239Z,101480.93
2023-05-09T04:46:06.095Z,101486.91
2023-05-09T04:48:38.038Z,101483.91
2023-05-09T04:51:09.766Z,101488.55
2023-05-09T04:53:41.400Z,101491.07
2023-05-09T04:56:13.380Z,101493.40
2023-05-09T04:58:45.501Z,101489.02
2023-05-09T05:01:18.330Z,101487.53
2023-05-09T05:03:50.412Z,101483.12
2023-05-09T05:06:22.105Z,101487.84
2023-05-09T05:08:54.408Z,101484.37
2023-05-09T05:11:26.706Z,101483.77
2023-05-09T05:13:58.702Z,101486.23
2023-05-09T05:16:30.553Z,101489.94
2023-05-09T05:19:02.577Z,101490.56
2023-05-09T05:21:34.768Z,101490.67
2023-05-09T05:24:06.785Z,101487.59
2023-05-09T05:26:38.890Z,101488.97
2023-05-09T05:29:10.911Z,101494.13
2023-05-09T05:31:42.684Z,101490.58
2023-05-09T05:34:16.050Z,101490.14
2023-05-09T05:36:48.216Z,101483.98
2023-05-09T05:39:19.951Z,101479.10
2023-05-09T05:41:52.848Z,101482.08
2023-05-09T05:44:24.727Z,101475.62
2023-05-09T05:46:56.733Z,101480.25
2023-05-09T05:49:30.258Z,101482.20
2023-05-09T05:52:02.392Z,101479.34
2023-05-09T05:54:34.485Z,101477.25
2023-05-09T05:57:08.191Z,101484.13
2023-05-09T05:59:40.112Z,101481.80
2023-05-09T06:02:12.276Z,101479.02
2023-05-09T06:04:44.769Z,101485.08
2023-05-09T06:07:16.747Z,101486.64
2023-05-09T06:09:49.920Z,101482.80
2023-05-09T06:12:21.788Z,101490.98
2023-05-09T06:14:53.698Z,101489.03
2023-05-09T06:17:26.242Z,101484.34
2023-05-09T06:19:59.511Z,101486.33
2023-05-09T06:22:31.185Z,101489.09
2023-05-09T06:25:02.772Z,101482.41
2023-05-09T06:27:34.780Z,101493.05
2023-05-09T06:30:26.161Z,101485.09
2023-05-09T06:32:52.036Z,101486.50
2023-05-09T06:35:23.806Z,101482.98
2023-05-09T06:37:55.569Z,101481.86
2023-05-09T06:40:27.413Z,101480.89
2023-05-09T06:42:58.982Z,101483.14
2023-05-09T06:45:31.199Z,101474.97
2023-05-09T06:48:02.832Z,101476.85
2023-05-09T06:50:34.980Z,101480.16
2023-05-09T06:53:07.047Z,101481.17
2023-05-09T06:55:39.218Z,101481.48
2023-05-09T06:58:11.408Z,101477.51
2023-05-09T07:00:43.625Z,101477.41
2023-05-09T07:03:16.159Z,101476.95
2023-05-09T07:05:47.804Z,101481.48
2023-05-09T07:08:19.840Z,101469.33
2023-05-09T07:10:51.578Z,101474.87
2023-05-09T07:13:23.531Z,101466.86
2023-05-09T07:15:56.301Z,101466.66
2023-05-09T07:18:29.755Z,101465.17
2023-05-09T07:21:01.694Z,101456.22
2023-05-09T07:23:34.099Z,101453.03
2023-05-09T07:26:06.039Z,101455.58
2023-05-09T07:28:37.621Z,101449.80
2023-05-09T07:31:09.456Z,101444.45
2023-05-09T07:33:41.377Z,101440.63
2023-05-09T07:36:14.931Z,101441.65
2023-05-09T07:38:48.166Z,101441.67
2023-05-09T07:41:20.169Z,101437.95
2023-05-09T07:43:51.877Z,101429.33
2023-05-09T07:46:24.536Z,101428.36
2023-05-09T07:48:56.838Z,101421.77
2023-05-09T07:51:28.552Z,101414.91
2023-05-09T07:54:00.526Z,101425.19
2023-05-09T07:56:32.803Z,101421.34
2023-05-09T07:59:07.529Z,101422.32
2023-05-09T08:01:39.528Z,101423.95
2023-05-09T08:04:11.458Z,101420.88
2023-05-09T08:06:43.928Z,101420.69
2023-05-09T08:09:16.699Z,101419.86
2023-05-09T08:11:48.814Z,101417.27
2023-05-09T08:14:20.852Z,101415.41
2023-05-09T08:16:52.589Z,101424.98
2023-05-09T08:19:26.433Z,101416.19
2023-05-09T08:21:58.166Z,101410.70
2023-05-09T08:24:29.804Z,101412.87
2023-05-09T08:27:01.576Z,101405.75
2023-05-09T08:29:33.715Z,101396.03
2023-05-09T08:32:06.147Z,101397.45
2023-05-09T08:34:38.337Z,101401.12
2023-05-09T08:37:12.214Z,101401.05
2023-05-09T08:39:44.368Z,101400.22
2023-05-09T08:42:18.338Z,101393.53
2023-05-09T08:44:50.146Z,101383.64
2023-05-09T08:47:21.900Z,101391.94
2023-05-09T08:49:54.911Z,101389.13
2023-05-09T08:52:26.919Z,101384.18
2023-05-09T08:54:58.801Z,101374.21
2023-05-09T08:57:30.982Z,101381.34
2023-05-09T09:00:04.957Z,101378.04
2023-05-09T09:02:37.379Z,101373.59
2023-05-09T09:05:16.385Z,101370.89
2023-05-09T09:07:43.636Z,101371.57
2023-05-09T09:10:16.578Z,101376.12
2023-05-09T09:12:50.391Z,101373.08
2023-05-09T09:15:22.969Z,101370.88
2023-05-09T09:17:56.796Z,101353.95
2023-05-09T09:20:29.207Z,101369.96
2023-05-09T09:23:02.118Z,101364.41
2023-05-09T09:25:34.155Z,101363.37
2023-05-09T09:28:06.570Z,101365.77
2023-05-09T09:30:48.485Z,101359.98
2023-05-09T09:33:21.837Z,101368.66
2023-05-09T09:35:54.858Z,101350.84
2023-05-09T09:38:27.034Z,101347.41
2023-05-09T09:40:59.600Z,101353.02
2023-05-09T09:43:32.386Z,101346.27
2023-05-09T09:46:04.673Z,101345.31
2023-05-09T09:48:38.587Z,101342.80
2023-05-09T09:51:12.777Z,101342.69
2023-05-09T09:53:56.335Z,101346.05
2023-05-09T09:56:31.447Z,101347.00
2023-05-09T09:59:20.514Z,101350.50
2023-05-09T10:02:09.314Z,101345.05
2023-05-09T10:04:43.522Z,101347.60
2023-05-09T10:07:16.244Z,101349.13
2023-05-09T10:09:49.572Z,101342.95
2023-05-09T10:12:23.133Z,101344.73
2023-05-09T10:14:54.959Z,101348.02
2023-05-09T10:17:27.745Z,101348.15
2023-05-09T10:19:59.880Z,101336.55
2023-05-09T10:22:35.694Z,101332.09
2023-05-09T10:25:11.051Z,101337.42
2023-05-09T10:27:46.167Z,101333.54
2023-05-09T10:30:22.725Z,101335.83
2023-05-09T10:32:59.773Z,101341.34
2023-05-09T10:35:34.065Z,101343.47
2023-05-09T10:38:06.151Z,101335.27
2023-05-09T10:40:37.707Z,101336.89
2023-05-09T10:43:09.273Z,101344.79
2023-05-09T10:45:41.131Z,101333.92
2023-05-09T10:48:12.820Z,101328.41
2023-05-09T10:50:45.175Z,101326.19
2023-05-09T10:53:21.887Z,101324.16
2023-05-09T10:56:00.279Z,101322.97
2023-05-09T10:58:40.972Z,101331.48
2023-05-09T11:01:12.802Z,101323.77
2023-05-09T11:03:57.039Z,101320.73
2023-05-09T11:06:45.117Z,101316.27
2023-05-09T11:09:37.509Z,101313.64
2023-05-09T11:12:14.646Z,101320.61
2023-05-09T11:14:48.905Z,101314.45
2023-05-09T11:17:28.806Z,101314.20
2023-05-09T11:20:03.432Z,101308.77
2023-05-09T11:22:43.341Z,101304.20
2023-05-09T11:25:17.250Z,101294.91
2023-05-09T11:27:50.928Z,101297.73
2023-05-09T11:30:23.414Z,101307.91
2023-05-09T11:32:59.137Z,101307.23
2023-05-09T11:35:31.600Z,101297.28
2023-05-09T11:38:07.015Z,101303.19
2023-05-09T11:40:39.322Z,101295.91
2023-05-09T11:43:11.286Z,101301.23
2023-05-09T11:45:43.612Z,101294.61
2023-05-09T11:48:15.552Z,101295.68
2023-05-09T11:50:49.815Z,101293.01
2023-05-09T11:53:21.683Z,101291.88
2023-05-09T11:55:53.568Z,101294.02
2023-05-09T11:58:25.174Z,101293.23
2023-05-09T12:00:57.625Z,101289.45
2023-05-09T12:03:29.765Z,101284.33
2023-05-09T12:06:01.906Z,101288.96
2023-05-09T12:08:33.943Z,101285.00
2023-05-09T12:11:12.324Z,101280.45
2023-05-09T12:13:51.933Z,101273.31
2023-05-09T12:16:23.693Z,101273.86
2023-05-09T12:18:55.516Z,101267.44
2023-05-09T12:21:28.503Z,101267.44
2023-05-09T12:24:03.058Z,101266.16
2023-05-09T12:29:18.858Z,101253.59
2023-05-09T12:31:50.938Z,101253.64
2023-05-09T12:34:23.091Z,101249.08
2023-05-09T12:36:55.032Z,101248.64
2023-05-09T12:39:27.088Z,101241.98
2023-05-09T12:42:01.990Z,101241.94
2023-05-09T12:44:34.008Z,101249.88
2023-05-09T12:47:05.832Z,101252.47
2023-05-09T12:49:38.047Z,101242.34
2023-05-09T12:52:13.171Z,101250.46
2023-05-09T12:54:46.324Z,101240.03
2023-05-09T12:57:24.612Z,101237.06
2023-05-09T13:00:00.372Z,101238.62
2023-05-09T13:02:42.354Z,101227.02
2023-05-09T13:05:18.156Z,101233.45
2023-05-09T13:07:52.714Z,101227.83
2023-05-09T13:10:31.003Z,101227.95
2023-05-09T13:13:04.686Z,101219.94
2023-05-09T13:15:36.234Z,101226.59
2023-05-09T13:18:07.956Z,101230.84
2023-05-09T13:20:39.573Z,101226.64
2023-05-09T13:23:11.433Z,101220.17
2023-05-09T13:25:43.200Z,101228.39
2023-05-09T13:28:15.475Z,101219.88
2023-05-09T13:30:48.308Z,101220.58
2023-05-09T13:35:54.355Z,101218.80
2023-05-09T13:38:26.265Z,101213.33
2023-05-09T13:40:58.688Z,101214.31
2023-05-09T13:43:30.672Z,101213.33
2023-05-09T13:46:03.294Z,101205.95
2023-05-09T13:48:35.779Z,101208.00
2023-05-09T13:51:08.104Z,101212.25
2023-05-09T13:53:40.106Z,101219.03
2023-05-09T13:56:11.940Z,101210.88
2023-05-09T13:58:43.641Z,101207.64
2023-05-09T14:01:16.289Z,101205.75
2023-05-09T14:06:33.436Z,101197.54
2023-05-09T14:09:05.168Z,101203.66
2023-05-09T14:11:37.359Z,101206.77
2023-05-09T14:14:09.163Z,101209.33
2023-05-09T14:16:40.890Z,101196.52
2023-05-09T14:19:12.741Z,101195.87
2023-05-09T14:21:45.146Z,101197.89
2023-05-09T14:24:16.915Z,101193.43
2023-05-09T14:26:48.998Z,101202.53
2023-05-09T14:29:21.576Z,101200.77
2023-05-09T14:31:53.282Z,101198.95
2023-05-09T14:34:25.355Z,101199.48
2023-05-09T14:36:57.835Z,101191.80
2023-05-09T14:39:29.417Z,101191.97
2023-05-09T14:42:01.178Z,101203.91
2023-05-09T14:44:33.588Z,101201.09
2023-05-09T14:47:05.424Z,101203.08
2023-05-09T14:49:39.585Z,101194.64
2023-05-09T14:52:11.929Z,101197.73
2023-05-09T14:54:43.551Z,101190.31
2023-05-09T14:57:15.298Z,101189.89
2023-05-09T14:59:47.128Z,101187.13
2023-05-09T15:02:18.846Z,101186.71
2023-05-09T15:04:51.930Z,101182.75
2023-05-09T15:07:24.068Z,101185.63
2023-05-09T15:09:55.934Z,101186.12
2023-05-09T15:15:20.274Z,101182.19
2023-05-09T15:17:52.971Z,101184.39
2023-05-09T15:20:25.185Z,101184.33
2023-05-09T15:23:09.840Z,101182.64
2023-05-09T15:25:42.928Z,101175.94
2023-05-09T15:28:14.756Z,101179.00
2023-05-09T15:30:46.574Z,101187.89
2023-05-09T15:33:18.791Z,101192.31
2023-05-09T15:35:50.428Z,101190.87
2023-05-09T15:38:22.012Z,101189.42
2023-05-09T15:40:53.693Z,101189.69
2023-05-09T15:43:25.346Z,101183.13
2023-05-09T15:45:57.263Z,101182.39
2023-05-09T15:48:28.965Z,101183.63
2023-05-09T15:51:02.707Z,101180.32
2023-05-09T15:53:34.917Z,101181.30
2023-05-09T15:56:07.908Z,101175.41
2023-05-09T15:58:40.543Z,101176.03
2023-05-09T16:01:13.903Z,101176.91
2023-05-09T16:03:45.962Z,101173.95
2023-05-09T16:06:17.916Z,101174.44
2023-05-09T16:08:50.326Z,101166.61
2023-05-09T16:11:23.582Z,101168.19
2023-05-09T16:13:55.356Z,101169.55
2023-05-09T16:16:27.024Z,101170.92
2023-05-09T16:18:58.780Z,101162.23
2023-05-09T16:21:32.234Z,101167.12
2023-05-09T16:24:05.102Z,101166.39
2023-05-09T16:26:36.823Z,101163.30
2023-05-09T16:29:08.777Z,101170.66
2023-05-09T16:31:42.351Z,101162.41
2023-05-09T16:34:14.114Z,101165.09
2023-05-09T16:36:48.224Z,101169.95
2023-05-09T16:39:19.821Z,101177.08
2023-05-09T16:41:51.523Z,101168.45
2023-05-09T16:44:23.249Z,101168.84
2023-05-09T16:46:54.935Z,101167.00
2023-05-09T16:49:26.677Z,101167.16
2023-05-09T16:51:59.456Z,101171.42
2023-05-09T16:54:31.810Z,101169.70
2023-05-09T16:57:04.509Z,101172.81
2023-05-09T16:59:37.437Z,101172.84
2023-05-09T17:02:10.687Z,101173.88
2023-05-09T17:04:42.725Z,101173.29
2023-05-09T17:07:15.512Z,101169.84
2023-05-09T17:09:48.650Z,101172.23
2023-05-09T17:12:20.286Z,101175.95
2023-05-09T17:14:52.104Z,101173.50
2023-05-09T17:17:23.685Z,101166.48
2023-05-09T17:19:55.960Z,101171.55
2023-05-09T17:22:27.922Z,101165.97
2023-05-09T17:24:59.497Z,101165.23
2023-05-09T17:27:31.809Z,101166.37
2023-05-09T17:30:04.294Z,101171.19
2023-05-09T17:32:36.811Z,101174.77
2023-05-09T17:35:09.365Z,101178.63
2023-05-09T17:37:41.701Z,101183.56
2023-05-09T17:40:13.725Z,101178.23
2023-05-09T17:42:45.814Z,101176.41
2023-05-09T17:45:17.489Z,101179.61
2023-05-09T17:47:49.901Z,101185.05
2023-05-09T17:50:21.961Z,101176.89
2023-05-09T17:52:55.188Z,101175.77
2023-05-09T17:55:27.244Z,101176.01
2023-05-09T17:57:58.849Z,101177.61
2023-05-09T18:00:31.441Z,101177.09
2023-05-09T18:03:04.006Z,101177.20
2023-05-09T18:05:36.060Z,101174.25
2023-05-09T18:08:08.277Z,101178.32
2023-05-09T18:10:41.273Z,101177.31
2023-05-09T18:13:14.150Z,101179.39
2023-05-09T18:15:46.005Z,101176.80
2023-05-09T18:18:17.673Z,101182.11
2023-05-09T18:20:49.385Z,101178.89
2023-05-09T18:23:22.286Z,101177.77
2023-05-09T18:25:56.411Z,101185.40
2023-05-09T18:28:29.237Z,101173.64
2023-05-09T18:31:01.910Z,101177.22
2023-05-09T18:33:38.282Z,101178.02
2023-05-09T18:36:11.621Z,101178.88
2023-05-09T18:38:44.782Z,101183.78
2023-05-09T18:41:19.612Z,101180.17
2023-05-09T18:43:51.533Z,101181.75
2023-05-09T18:46:23.882Z,101176.81
2023-05-09T18:48:56.513Z,101174.55
2023-05-09T18:51:28.451Z,101180.70
2023-05-09T18:54:00.249Z,101172.52
2023-05-09T18:56:34.729Z,101180.53
2023-05-09T18:59:09.132Z,101181.58
2023-05-09T19:01:42.992Z,101170.91
2023-05-09T19:04:16.971Z,101170.01
2023-05-09T19:06:49.002Z,101168.14
2023-05-09T19:09:21.779Z,101167.71
2023-05-09T19:11:54.072Z,101176.19
2023-05-09T19:14:27.035Z,101175.20
2023-05-09T19:16:59.932Z,101172.19
2023-05-09T19:19:32.514Z,101175.53
2023-05-09T19:22:05.285Z,101175.23
2023-05-09T19:24:39.763Z,101174.98
2023-05-09T19:27:12.008Z,101169.88
2023-05-09T19:29:44.488Z,101163.43
2023-05-09T19:32:16.129Z,101167.61
2023-05-09T19:34:47.872Z,101164.64
2023-05-09T19:37:19.585Z,101166.43
2023-05-09T19:39:51.484Z,101171.81
2023-05-09T19:42:23.795Z,101170.89
2023-05-09T19:44:55.630Z,101169.02
2023-05-09T19:47:28.334Z,101173.14
2023-05-09T19:50:02.185Z,101172.70
2023-05-09T19:52:36.371Z,101172.54
2023-05-09T19:55:09.019Z,101170.12
2023-05-09T19:57:40.915Z,101165.63
2023-05-09T20:00:13.853Z,101167.20
2023-05-09T20:02:47.107Z,101167.52
2023-05-09T20:05:18.901Z,101168.98
2023-05-09T20:07:50.719Z,101163.88
2023-05-09T20:10:23.042Z,101165.70
2023-05-09T20:12:56.871Z,101163.98
2023-05-09T20:15:29.205Z,101164.66
2023-05-09T20:18:02.778Z,101159.45
2023-05-09T20:20:35.141Z,101161.05
2023-05-09T20:23:07.225Z,101161.27
2023-05-09T20:25:38.830Z,101153.72
2023-05-09T20:28:12.342Z,101152.67
2023-05-09T20:30:44.043Z,101153.29
2023-05-09T20:33:16.574Z,101149.91
2023-05-09T20:35:49.220Z,101151.95
2023-05-09T20:38:21.354Z,101155.74
2023-05-09T20:40:53.097Z,101150.94
2023-05-09T20:43:25.023Z,101149.59
2023-05-09T20:45:57.060Z,101150.53
2023-05-09T20:48:29.722Z,101157.04
2023-05-09T20:51:01.246Z,101150.84
2023-05-09T20:53:34.916Z,101145.16
2023-05-09T20:56:06.762Z,101144.38
2023-05-09T20:58:38.563Z,101151.26
2023-05-09T21:01:10.426Z,101141.52
2023-05-09T21:03:42.096Z,101144.05
2023-05-09T21:06:13.817Z,101144.53
2023-05-09T21:08:45.916Z,101145.98
2023-05-09T21:11:18.751Z,101145.61
2023-05-09T21:13:50.819Z,101150.25
2023-05-09T21:16:23.140Z,101147.78
2023-05-09T21:18:54.892Z,101148.36
2023-05-09T21:21:26.735Z,101151.16
2023-05-09T21:23:58.858Z,101150.89
2023-05-09T21:26:30.716Z,101146.53
2023-05-09T21:29:02.557Z,101143.35
2023-05-09T21:31:34.511Z,101137.46
2023-05-09T21:34:12.614Z,101142.00
2023-05-09T21:36:44.238Z,101141.12
2023-05-09T21:39:16.025Z,101140.84
2023-05-09T21:41:47.733Z,101133.34
2023-05-09T21:44:19.839Z,101123.56
2023-05-09T21:46:51.573Z,101129.08
2023-05-09T21:49:23.168Z,101120.11
2023-05-09T21:51:54.700Z,101124.75
2023-05-09T21:54:26.357Z,101118.55
2023-05-09T21:56:57.989Z,101119.64
2023-05-09T21:59:29.638Z,101112.98
2023-05-09T22:02:01.680Z,101113.95
2023-05-09T22:04:33.688Z,101112.33
2023-05-09T22:07:05.294Z,101114.26
2023-05-09T22:09:37.390Z,101105.77
2023-05-09T22:12:09.421Z,101105.77
2023-05-09T22:14:48.891Z,101105.27
2023-05-09T22:17:14.783Z,101102.08
2023-05-09T22:19:46.514Z,101107.02
2023-05-09T22:22:18.083Z,101107.59
2023-05-09T22:24:49.912Z,101107.33
2023-05-09T22:27:21.477Z,101108.41
2023-05-09T22:29:53.911Z,101109.35
2023-05-09T22:32:25.501Z,101106.38
2023-05-09T22:34:59.417Z,101106.20
2023-05-09T22:37:31.175Z,101105.05
2023-05-09T22:40:02.817Z,101098.77
2023-05-09T22:42:34.930Z,101104.77
2023-05-09T22:45:07.396Z,101102.92
2023-05-09T22:47:39.568Z,101095.31
2023-05-09T22:50:11.599Z,101096.26
2023-05-09T22:52:43.353Z,101094.33
2023-05-09T22:55:15.046Z,101093.42
2023-05-09T22:57:47.473Z,101098.16
2023-05-09T23:00:19.263Z,101090.41
2023-05-09T23:02:51.115Z,101081.05
2023-05-09T23:05:22.938Z,101086.09
2023-05-09T23:07:54.864Z,101084.26
2023-05-09T23:10:26.431Z,101085.88
2023-05-09T23:12:58.030Z,101087.98
2023-05-09T23:15:29.951Z,101084.43
2023-05-09T23:18:01.788Z,101085.17
2023-05-09T23:20:33.790Z,101077.73
2023-05-09T23:23:06.176Z,101075.91
2023-05-09T23:25:39.089Z,101074.15
2023-05-09T23:28:10.921Z,101073.77
2023-05-09T23:30:42.920Z,101070.19
2023-05-09T23:33:14.529Z,101074.25
2023-05-09T23:35:46.150Z,101066.13
2023-05-09T23:38:17.992Z,101069.24
2023-05-09T23:43:33.592Z,101061.56
2023-05-09T23:46:05.503Z,101066.02
2023-05-09T23:48:37.826Z,101062.81
2023-05-09T23:51:09.541Z,101060.48
2023-05-09T23:53:41.227Z,101058.55
2023-05-09T23:56:12.809Z,101054.49
2023-05-09T23:58:44.718Z,101061.25
